sensor_id;sensor_type;location;lat;lon;timestamp;temperature;humidity
37340;DHT22;23223;51.006;7.610;2024-02-28T00:01:37;0.30;99.90
37340;DHT22;23223;51.006;7.610;2024-02-28T00:04:03;0.50;99.90
37340;DHT22;23223;51.006;7.610;2024-02-28T00:06:29;0.80;99.90
37340;DHT22;23223;51.006;7.610;2024-02-28T00:08:54;0.90;99.90
37340;DHT22;23223;51.006;7.610;2024-02-28T00:11:20;0.90;99.90
37340;DHT22;23223;51.006;7.610;2024-02-28T00:13:46;1.30;99.90
37340;DHT22;23223;51.006;7.610;2024-02-28T00:16:12;1.80;99.90
37340;DHT22;23223;51.006;7.610;2024-02-28T00:18:37;1.80;99.90
37340;DHT22;23223;51.006;7.610;2024-02-28T00:21:03;1.40;99.90
37340;DHT22;23223;51.006;7.610;2024-02-28T00:23:29;1.20;99.90
37340;DHT22;23223;51.006;7.610;2024-02-28T00:25:55;0.90;99.90
37340;DHT22;23223;51.006;7.610;2024-02-28T00:28:21;0.70;99.90
37340;DHT22;23223;51.006;7.610;2024-02-28T00:30:47;0.60;99.90
37340;DHT22;23223;51.006;7.610;2024-02-28T00:33:12;0.50;99.90
37340;DHT22;23223;51.006;7.610;2024-02-28T00:35:39;0.40;99.90
37340;DHT22;23223;51.006;7.610;2024-02-28T00:38:05;0.30;99.90
37340;DHT22;23223;51.006;7.610;2024-02-28T00:40:31;0.30;99.90
37340;DHT22;23223;51.006;7.610;2024-02-28T00:42:57;0.20;99.90
37340;DHT22;23223;51.006;7.610;2024-02-28T00:45:23;0.20;99.90
37340;DHT22;23223;51.006;7.610;2024-02-28T00:47:49;0.20;99.90
37340;DHT22;23223;51.006;7.610;2024-02-28T00:50:15;0.10;99.90
37340;DHT22;23223;51.006;7.610;2024-02-28T00:52:40;0.10;99.90
37340;DHT22;23223;51.006;7.610;2024-02-28T00:55:06;0.20;99.90
37340;DHT22;23223;51.006;7.610;2024-02-28T00:57:32;0.20;99.90
37340;DHT22;23223;51.006;7.610;2024-02-28T00:59:58;0.20;99.90
37340;DHT22;23223;51.006;7.610;2024-02-28T01:02:24;0.20;99.90
37340;DHT22;23223;51.006;7.610;2024-02-28T01:04:50;0.20;99.90
37340;DHT22;23223;51.006;7.610;2024-02-28T01:07:15;0.20;99.90
37340;DHT22;23223;51.006;7.610;2024-02-28T01:09:41;0.20;99.90
37340;DHT22;23223;51.006;7.610;2024-02-28T01:12:07;0.30;99.90
37340;DHT22;23223;51.006;7.610;2024-02-28T01:14:33;0.30;99.90
37340;DHT22;23223;51.006;7.610;2024-02-28T01:16:58;0.40;99.90
37340;DHT22;23223;51.006;7.610;2024-02-28T01:19:24;0.40;99.90
37340;DHT22;23223;51.006;7.610;2024-02-28T01:21:50;0.50;99.90
37340;DHT22;23223;51.006;7.610;2024-02-28T01:24:16;0.60;99.90
37340;DHT22;23223;51.006;7.610;2024-02-28T01:26:41;0.60;99.90
37340;DHT22;23223;51.006;7.610;2024-02-28T01:29:07;0.80;99.90
37340;DHT22;23223;51.006;7.610;2024-02-28T01:31:32;0.80;99.90
37340;DHT22;23223;51.006;7.610;2024-02-28T01:33:58;0.80;99.90
37340;DHT22;23223;51.006;7.610;2024-02-28T01:36:24;1.00;99.90
37340;DHT22;23223;51.006;7.610;2024-02-28T01:38:49;1.00;99.90
37340;DHT22;23223;51.006;7.610;2024-02-28T01:41:15;1.00;99.90
37340;DHT22;23223;51.006;7.610;2024-02-28T01:43:40;1.00;99.90
37340;DHT22;23223;51.006;7.610;2024-02-28T01:46:23;1.00;99.90
37340;DHT22;23223;51.006;7.610;2024-02-28T01:48:49;1.20;99.90
37340;DHT22;23223;51.006;7.610;2024-02-28T01:51:16;1.30;99.90
37340;DHT22;23223;51.006;7.610;2024-02-28T01:53:42;1.30;99.90
37340;DHT22;23223;51.006;7.610;2024-02-28T01:56:08;1.20;99.90
37340;DHT22;23223;51.006;7.610;2024-02-28T01:58:34;1.20;99.90
37340;DHT22;23223;51.006;7.610;2024-02-28T02:01:01;1.10;99.90
37340;DHT22;23223;51.006;7.610;2024-02-28T02:03:28;1.10;99.90
37340;DHT22;23223;51.006;7.610;2024-02-28T02:05:54;1.10;99.90
37340;DHT22;23223;51.006;7.610;2024-02-28T02:08:20;1.10;99.90
37340;DHT22;23223;51.006;7.610;2024-02-28T02:10:46;1.10;99.90
37340;DHT22;23223;51.006;7.610;2024-02-28T02:13:12;1.00;99.90
37340;DHT22;23223;51.006;7.610;2024-02-28T02:15:37;1.00;99.90
37340;DHT22;23223;51.006;7.610;2024-02-28T02:18:04;0.80;99.90
37340;DHT22;23223;51.006;7.610;2024-02-28T02:20:32;0.80;99.90
37340;DHT22;23223;51.006;7.610;2024-02-28T02:22:59;0.60;99.90
37340;DHT22;23223;51.006;7.610;2024-02-28T02:25:25;0.50;99.90
37340;DHT22;23223;51.006;7.610;2024-02-28T02:27:50;0.40;99.90
37340;DHT22;23223;51.006;7.610;2024-02-28T02:30:16;0.40;99.90
37340;DHT22;23223;51.006;7.610;2024-02-28T02:32:42;0.40;99.90
37340;DHT22;23223;51.006;7.610;2024-02-28T02:35:07;0.40;99.90
37340;DHT22;23223;51.006;7.610;2024-02-28T02:37:33;0.70;99.90
37340;DHT22;23223;51.006;7.610;2024-02-28T02:39:59;1.10;99.90
37340;DHT22;23223;51.006;7.610;2024-02-28T02:42:25;1.10;99.90
37340;DHT22;23223;51.006;7.610;2024-02-28T02:44:50;1.00;99.90
37340;DHT22;23223;51.006;7.610;2024-02-28T02:47:16;0.90;99.90
37340;DHT22;23223;51.006;7.610;2024-02-28T02:49:41;0.80;99.90
37340;DHT22;23223;51.006;7.610;2024-02-28T02:52:07;0.70;99.90
37340;DHT22;23223;51.006;7.610;2024-02-28T02:54:32;0.70;99.90
37340;DHT22;23223;51.006;7.610;2024-02-28T02:56:58;0.70;99.90
37340;DHT22;23223;51.006;7.610;2024-02-28T02:59:23;0.60;99.90
37340;DHT22;23223;51.006;7.610;2024-02-28T03:01:49;0.60;99.90
37340;DHT22;23223;51.006;7.610;2024-02-28T03:04:15;0.50;99.90
37340;DHT22;23223;51.006;7.610;2024-02-28T03:06:41;0.50;99.90
37340;DHT22;23223;51.006;7.610;2024-02-28T03:09:06;0.50;99.90
37340;DHT22;23223;51.006;7.610;2024-02-28T03:11:33;0.40;99.90
37340;DHT22;23223;51.006;7.610;2024-02-28T03:14:00;0.40;99.90
37340;DHT22;23223;51.006;7.610;2024-02-28T03:16:26;0.40;99.90
37340;DHT22;23223;51.006;7.610;2024-02-28T03:18:53;0.50;99.90
37340;DHT22;23223;51.006;7.610;2024-02-28T03:21:19;0.80;99.90
37340;DHT22;23223;51.006;7.610;2024-02-28T03:23:46;0.90;99.90
37340;DHT22;23223;51.006;7.610;2024-02-28T03:26:11;1.40;99.90
37340;DHT22;23223;51.006;7.610;2024-02-28T03:28:37;1.80;99.90
37340;DHT22;23223;51.006;7.610;2024-02-28T03:31:03;2.20;99.90
37340;DHT22;23223;51.006;7.610;2024-02-28T03:33:28;2.20;99.90
37340;DHT22;23223;51.006;7.610;2024-02-28T03:35:56;2.00;99.90
37340;DHT22;23223;51.006;7.610;2024-02-28T03:38:22;1.90;99.90
37340;DHT22;23223;51.006;7.610;2024-02-28T03:40:47;1.60;99.90
37340;DHT22;23223;51.006;7.610;2024-02-28T03:43:13;1.50;99.90
37340;DHT22;23223;51.006;7.610;2024-02-28T03:45:39;1.40;99.90
37340;DHT22;23223;51.006;7.610;2024-02-28T03:48:05;1.20;99.90
37340;DHT22;23223;51.006;7.610;2024-02-28T03:50:30;1.10;99.90
37340;DHT22;23223;51.006;7.610;2024-02-28T03:52:56;1.10;99.90
37340;DHT22;23223;51.006;7.610;2024-02-28T03:55:21;1.10;99.90
37340;DHT22;23223;51.006;7.610;2024-02-28T03:57:48;1.10;99.90
37340;DHT22;23223;51.006;7.610;2024-02-28T04:00:17;1.20;99.90
37340;DHT22;23223;51.006;7.610;2024-02-28T04:02:43;1.60;99.90
37340;DHT22;23223;51.006;7.610;2024-02-28T04:05:08;1.80;99.90
37340;DHT22;23223;51.006;7.610;2024-02-28T04:07:34;2.00;99.90
37340;DHT22;23223;51.006;7.610;2024-02-28T04:09:59;2.40;99.90
37340;DHT22;23223;51.006;7.610;2024-02-28T04:12:25;2.80;99.90
37340;DHT22;23223;51.006;7.610;2024-02-28T04:14:50;3.00;99.90
37340;DHT22;23223;51.006;7.610;2024-02-28T04:17:16;3.00;99.90
37340;DHT22;23223;51.006;7.610;2024-02-28T04:19:41;3.10;99.90
37340;DHT22;23223;51.006;7.610;2024-02-28T04:22:07;3.00;99.90
37340;DHT22;23223;51.006;7.610;2024-02-28T04:24:35;2.70;99.90
37340;DHT22;23223;51.006;7.610;2024-02-28T04:27:00;2.40;99.90
37340;DHT22;23223;51.006;7.610;2024-02-28T04:29:28;2.10;99.90
37340;DHT22;23223;51.006;7.610;2024-02-28T04:31:53;1.90;99.90
37340;DHT22;23223;51.006;7.610;2024-02-28T04:34:19;1.80;99.90
37340;DHT22;23223;51.006;7.610;2024-02-28T04:36:45;1.80;99.90
37340;DHT22;23223;51.006;7.610;2024-02-28T04:39:10;1.90;99.90
37340;DHT22;23223;51.006;7.610;2024-02-28T04:41:36;1.80;99.90
37340;DHT22;23223;51.006;7.610;2024-02-28T04:44:01;1.70;99.90
37340;DHT22;23223;51.006;7.610;2024-02-28T04:46:27;1.60;99.90
37340;DHT22;23223;51.006;7.610;2024-02-28T04:48:52;1.50;99.90
37340;DHT22;23223;51.006;7.610;2024-02-28T04:51:18;1.70;99.90
37340;DHT22;23223;51.006;7.610;2024-02-28T04:53:44;1.80;99.90
37340;DHT22;23223;51.006;7.610;2024-02-28T04:56:09;2.10;99.90
37340;DHT22;23223;51.006;7.610;2024-02-28T04:58:36;2.20;99.90
37340;DHT22;23223;51.006;7.610;2024-02-28T05:01:02;2.00;99.90
37340;DHT22;23223;51.006;7.610;2024-02-28T05:03:28;1.90;99.90
37340;DHT22;23223;51.006;7.610;2024-02-28T05:05:54;1.70;99.90
37340;DHT22;23223;51.006;7.610;2024-02-28T05:08:20;1.50;99.90
37340;DHT22;23223;51.006;7.610;2024-02-28T05:10:46;1.50;99.90
37340;DHT22;23223;51.006;7.610;2024-02-28T05:13:12;1.60;99.90
37340;DHT22;23223;51.006;7.610;2024-02-28T05:15:37;1.70;99.90
37340;DHT22;23223;51.006;7.610;2024-02-28T05:18:03;1.80;99.90
37340;DHT22;23223;51.006;7.610;2024-02-28T05:20:29;1.70;99.90
37340;DHT22;23223;51.006;7.610;2024-02-28T05:22:54;1.70;99.90
37340;DHT22;23223;51.006;7.610;2024-02-28T05:25:20;1.90;99.90
37340;DHT22;23223;51.006;7.610;2024-02-28T05:27:45;1.80;99.90
37340;DHT22;23223;51.006;7.610;2024-02-28T05:30:11;1.90;99.90
37340;DHT22;23223;51.006;7.610;2024-02-28T05:32:37;2.40;99.90
37340;DHT22;23223;51.006;7.610;2024-02-28T05:35:03;2.60;99.90
37340;DHT22;23223;51.006;7.610;2024-02-28T05:37:29;2.70;99.90
37340;DHT22;23223;51.006;7.610;2024-02-28T05:39:54;2.90;99.90
37340;DHT22;23223;51.006;7.610;2024-02-28T05:42:20;2.80;99.90
37340;DHT22;23223;51.006;7.610;2024-02-28T05:44:49;2.60;99.90
37340;DHT22;23223;51.006;7.610;2024-02-28T05:47:15;2.60;99.90
37340;DHT22;23223;51.006;7.610;2024-02-28T05:49:41;2.40;99.90
37340;DHT22;23223;51.006;7.610;2024-02-28T05:52:07;2.20;99.90
37340;DHT22;23223;51.006;7.610;2024-02-28T05:54:32;2.20;99.90
37340;DHT22;23223;51.006;7.610;2024-02-28T05:57:00;2.20;99.90
37340;DHT22;23223;51.006;7.610;2024-02-28T05:59:25;2.10;99.90
37340;DHT22;23223;51.006;7.610;2024-02-28T06:01:51;1.90;99.90
37340;DHT22;23223;51.006;7.610;2024-02-28T06:04:17;1.80;99.90
37340;DHT22;23223;51.006;7.610;2024-02-28T06:06:42;1.80;99.90
37340;DHT22;23223;51.006;7.610;2024-02-28T06:09:08;1.90;99.90
37340;DHT22;23223;51.006;7.610;2024-02-28T06:11:34;1.90;99.90
37340;DHT22;23223;51.006;7.610;2024-02-28T06:14:02;2.10;99.90
37340;DHT22;23223;51.006;7.610;2024-02-28T06:16:29;2.30;99.90
37340;DHT22;23223;51.006;7.610;2024-02-28T06:18:55;2.80;99.90
37340;DHT22;23223;51.006;7.610;2024-02-28T06:21:24;3.40;99.90
37340;DHT22;23223;51.006;7.610;2024-02-28T06:23:50;4.00;99.90
37340;DHT22;23223;51.006;7.610;2024-02-28T06:26:15;4.00;99.90
37340;DHT22;23223;51.006;7.610;2024-02-28T06:28:44;3.70;99.90
37340;DHT22;23223;51.006;7.610;2024-02-28T06:31:15;3.30;99.90
37340;DHT22;23223;51.006;7.610;2024-02-28T06:33:41;2.90;99.90
37340;DHT22;23223;51.006;7.610;2024-02-28T06:36:07;2.50;99.90
37340;DHT22;23223;51.006;7.610;2024-02-28T06:38:32;2.20;99.90
37340;DHT22;23223;51.006;7.610;2024-02-28T06:41:06;1.90;99.90
37340;DHT22;23223;51.006;7.610;2024-02-28T06:43:35;1.70;99.90
37340;DHT22;23223;51.006;7.610;2024-02-28T06:46:04;1.50;99.90
37340;DHT22;23223;51.006;7.610;2024-02-28T06:48:29;1.40;99.90
37340;DHT22;23223;51.006;7.610;2024-02-28T06:50:55;1.20;99.90
37340;DHT22;23223;51.006;7.610;2024-02-28T06:53:21;1.10;99.90
37340;DHT22;23223;51.006;7.610;2024-02-28T06:55:47;1.00;99.90
37340;DHT22;23223;51.006;7.610;2024-02-28T06:58:14;0.90;99.90
37340;DHT22;23223;51.006;7.610;2024-02-28T07:00:40;1.00;99.90
37340;DHT22;23223;51.006;7.610;2024-02-28T07:03:06;1.20;99.90
37340;DHT22;23223;51.006;7.610;2024-02-28T07:05:32;1.60;99.90
37340;DHT22;23223;51.006;7.610;2024-02-28T07:07:59;2.20;99.90
37340;DHT22;23223;51.006;7.610;2024-02-28T07:10:24;2.80;99.90
37340;DHT22;23223;51.006;7.610;2024-02-28T07:12:50;3.60;99.90
37340;DHT22;23223;51.006;7.610;2024-02-28T07:15:16;3.80;99.90
37340;DHT22;23223;51.006;7.610;2024-02-28T07:17:45;4.10;99.90
37340;DHT22;23223;51.006;7.610;2024-02-28T07:20:10;4.40;99.90
37340;DHT22;23223;51.006;7.610;2024-02-28T07:22:37;4.70;99.90
37340;DHT22;23223;51.006;7.610;2024-02-28T07:25:04;5.00;99.90
37340;DHT22;23223;51.006;7.610;2024-02-28T07:27:30;5.00;99.90
37340;DHT22;23223;51.006;7.610;2024-02-28T07:29:56;4.60;99.90
37340;DHT22;23223;51.006;7.610;2024-02-28T07:32:22;4.00;99.90
37340;DHT22;23223;51.006;7.610;2024-02-28T07:34:48;3.40;99.90
37340;DHT22;23223;51.006;7.610;2024-02-28T07:37:14;3.00;99.90
37340;DHT22;23223;51.006;7.610;2024-02-28T07:39:39;2.50;99.90
37340;DHT22;23223;51.006;7.610;2024-02-28T07:42:05;2.30;99.90
37340;DHT22;23223;51.006;7.610;2024-02-28T07:44:31;2.30;99.90
37340;DHT22;23223;51.006;7.610;2024-02-28T07:46:59;2.20;99.90
37340;DHT22;23223;51.006;7.610;2024-02-28T07:49:25;2.30;99.90
37340;DHT22;23223;51.006;7.610;2024-02-28T07:51:51;2.70;99.90
37340;DHT22;23223;51.006;7.610;2024-02-28T07:54:17;2.70;99.90
37340;DHT22;23223;51.006;7.610;2024-02-28T07:56:43;2.50;99.90
37340;DHT22;23223;51.006;7.610;2024-02-28T07:59:09;2.20;99.90
37340;DHT22;23223;51.006;7.610;2024-02-28T08:01:35;2.10;99.90
37340;DHT22;23223;51.006;7.610;2024-02-28T08:04:02;2.00;99.90
37340;DHT22;23223;51.006;7.610;2024-02-28T08:06:27;1.80;99.90
37340;DHT22;23223;51.006;7.610;2024-02-28T08:08:53;1.60;99.90
37340;DHT22;23223;51.006;7.610;2024-02-28T08:11:19;1.50;99.90
37340;DHT22;23223;51.006;7.610;2024-02-28T08:13:44;1.30;99.90
37340;DHT22;23223;51.006;7.610;2024-02-28T08:16:10;1.20;99.90
37340;DHT22;23223;51.006;7.610;2024-02-28T08:18:36;1.10;99.90
37340;DHT22;23223;51.006;7.610;2024-02-28T08:21:01;1.10;99.90
37340;DHT22;23223;51.006;7.610;2024-02-28T08:23:29;1.20;99.90
37340;DHT22;23223;51.006;7.610;2024-02-28T08:25:55;1.40;99.90
37340;DHT22;23223;51.006;7.610;2024-02-28T08:28:20;2.00;99.90
37340;DHT22;23223;51.006;7.610;2024-02-28T08:30:46;3.20;99.90
37340;DHT22;23223;51.006;7.610;2024-02-28T08:33:12;4.20;99.90
37340;DHT22;23223;51.006;7.610;2024-02-28T08:35:37;4.80;99.90
37340;DHT22;23223;51.006;7.610;2024-02-28T08:38:03;5.10;99.90
37340;DHT22;23223;51.006;7.610;2024-02-28T08:40:29;5.00;99.90
37340;DHT22;23223;51.006;7.610;2024-02-28T08:42:55;4.60;99.90
37340;DHT22;23223;51.006;7.610;2024-02-28T08:45:22;4.10;99.90
37340;DHT22;23223;51.006;7.610;2024-02-28T08:47:48;3.70;99.90
37340;DHT22;23223;51.006;7.610;2024-02-28T08:50:13;3.40;99.90
37340;DHT22;23223;51.006;7.610;2024-02-28T08:52:40;3.40;99.90
37340;DHT22;23223;51.006;7.610;2024-02-28T08:55:06;4.30;99.90
37340;DHT22;23223;51.006;7.610;2024-02-28T08:57:32;5.10;99.90
37340;DHT22;23223;51.006;7.610;2024-02-28T08:59:57;5.80;99.90
37340;DHT22;23223;51.006;7.610;2024-02-28T09:02:23;5.80;99.90
37340;DHT22;23223;51.006;7.610;2024-02-28T09:04:49;5.30;99.90
37340;DHT22;23223;51.006;7.610;2024-02-28T09:07:18;4.80;99.90
37340;DHT22;23223;51.006;7.610;2024-02-28T09:09:46;4.40;99.90
37340;DHT22;23223;51.006;7.610;2024-02-28T09:12:12;4.50;99.90
37340;DHT22;23223;51.006;7.610;2024-02-28T09:14:38;4.70;99.90
37340;DHT22;23223;51.006;7.610;2024-02-28T09:17:04;5.00;99.90
37340;DHT22;23223;51.006;7.610;2024-02-28T09:19:31;5.20;99.90
37340;DHT22;23223;51.006;7.610;2024-02-28T09:21:57;5.40;99.90
37340;DHT22;23223;51.006;7.610;2024-02-28T09:24:23;5.90;99.90
37340;DHT22;23223;51.006;7.610;2024-02-28T09:26:49;6.60;99.90
37340;DHT22;23223;51.006;7.610;2024-02-28T09:29:14;7.10;99.90
37340;DHT22;23223;51.006;7.610;2024-02-28T09:31:40;7.40;99.90
37340;DHT22;23223;51.006;7.610;2024-02-28T09:34:06;7.00;99.90
37340;DHT22;23223;51.006;7.610;2024-02-28T09:36:44;6.80;99.90
37340;DHT22;23223;51.006;7.610;2024-02-28T09:39:12;6.80;99.90
37340;DHT22;23223;51.006;7.610;2024-02-28T09:41:38;6.40;99.90
37340;DHT22;23223;51.006;7.610;2024-02-28T09:44:06;6.70;99.90
37340;DHT22;23223;51.006;7.610;2024-02-28T09:46:33;7.00;99.90
37340;DHT22;23223;51.006;7.610;2024-02-28T09:49:05;7.40;99.90
37340;DHT22;23223;51.006;7.610;2024-02-28T09:51:35;7.30;99.90
37340;DHT22;23223;51.006;7.610;2024-02-28T09:54:04;7.40;99.90
37340;DHT22;23223;51.006;7.610;2024-02-28T09:56:33;7.60;99.90
37340;DHT22;23223;51.006;7.610;2024-02-28T09:59:00;7.30;99.90
37340;DHT22;23223;51.006;7.610;2024-02-28T10:01:28;6.60;99.90
37340;DHT22;23223;51.006;7.610;2024-02-28T10:03:59;5.80;99.90
37340;DHT22;23223;51.006;7.610;2024-02-28T10:06:26;5.20;99.90
37340;DHT22;23223;51.006;7.610;2024-02-28T10:08:51;4.70;99.90
37340;DHT22;23223;51.006;7.610;2024-02-28T10:11:26;4.30;99.90
37340;DHT22;23223;51.006;7.610;2024-02-28T10:13:52;4.20;99.90
37340;DHT22;23223;51.006;7.610;2024-02-28T10:16:20;4.20;99.90
37340;DHT22;23223;51.006;7.610;2024-02-28T10:18:46;4.10;99.90
37340;DHT22;23223;51.006;7.610;2024-02-28T10:21:12;4.10;99.90
37340;DHT22;23223;51.006;7.610;2024-02-28T10:23:41;4.40;99.90
37340;DHT22;23223;51.006;7.610;2024-02-28T10:26:09;4.30;99.90
37340;DHT22;23223;51.006;7.610;2024-02-28T10:28:39;4.20;99.90
37340;DHT22;23223;51.006;7.610;2024-02-28T10:31:09;4.50;99.90
37340;DHT22;23223;51.006;7.610;2024-02-28T10:33:35;4.70;99.90
37340;DHT22;23223;51.006;7.610;2024-02-28T10:36:02;4.80;99.90
37340;DHT22;23223;51.006;7.610;2024-02-28T10:38:31;4.70;99.90
37340;DHT22;23223;51.006;7.610;2024-02-28T10:41:02;4.40;99.90
37340;DHT22;23223;51.006;7.610;2024-02-28T10:43:29;4.20;99.90
37340;DHT22;23223;51.006;7.610;2024-02-28T10:45:59;4.20;99.90
37340;DHT22;23223;51.006;7.610;2024-02-28T10:48:26;4.30;99.90
37340;DHT22;23223;51.006;7.610;2024-02-28T10:50:52;4.30;99.90
37340;DHT22;23223;51.006;7.610;2024-02-28T10:53:24;4.40;99.90
37340;DHT22;23223;51.006;7.610;2024-02-28T10:55:56;4.30;99.90
37340;DHT22;23223;51.006;7.610;2024-02-28T10:58:24;4.70;99.90
37340;DHT22;23223;51.006;7.610;2024-02-28T11:00:50;5.20;99.90
37340;DHT22;23223;51.006;7.610;2024-02-28T11:03:17;5.50;99.90
37340;DHT22;23223;51.006;7.610;2024-02-28T11:05:44;5.60;99.90
37340;DHT22;23223;51.006;7.610;2024-02-28T11:08:26;5.70;99.90
37340;DHT22;23223;51.006;7.610;2024-02-28T11:11:03;5.60;99.90
37340;DHT22;23223;51.006;7.610;2024-02-28T11:13:30;5.20;99.90
37340;DHT22;23223;51.006;7.610;2024-02-28T11:16:08;5.50;99.90
37340;DHT22;23223;51.006;7.610;2024-02-28T11:18:33;6.00;99.90
37340;DHT22;23223;51.006;7.610;2024-02-28T11:20:59;5.90;99.90
37340;DHT22;23223;51.006;7.610;2024-02-28T11:23:25;5.70;99.90
37340;DHT22;23223;51.006;7.610;2024-02-28T11:25:51;5.40;99.90
37340;DHT22;23223;51.006;7.610;2024-02-28T11:28:17;5.10;99.90
37340;DHT22;23223;51.006;7.610;2024-02-28T11:30:43;5.00;99.90
37340;DHT22;23223;51.006;7.610;2024-02-28T11:33:08;5.50;99.90
37340;DHT22;23223;51.006;7.610;2024-02-28T11:35:35;5.90;99.90
37340;DHT22;23223;51.006;7.610;2024-02-28T11:38:01;6.60;99.90
37340;DHT22;23223;51.006;7.610;2024-02-28T11:40:27;7.20;99.90
37340;DHT22;23223;51.006;7.610;2024-02-28T11:42:53;7.10;99.90
37340;DHT22;23223;51.006;7.610;2024-02-28T11:45:19;6.90;99.90
37340;DHT22;23223;51.006;7.610;2024-02-28T11:47:45;6.50;99.90
37340;DHT22;23223;51.006;7.610;2024-02-28T11:50:11;6.10;99.90
37340;DHT22;23223;51.006;7.610;2024-02-28T11:52:37;6.00;99.90
37340;DHT22;23223;51.006;7.610;2024-02-28T11:55:03;6.50;99.90
37340;DHT22;23223;51.006;7.610;2024-02-28T11:57:29;6.60;99.90
37340;DHT22;23223;51.006;7.610;2024-02-28T12:00:02;6.50;99.90
37340;DHT22;23223;51.006;7.610;2024-02-28T12:02:29;6.90;99.90
37340;DHT22;23223;51.006;7.610;2024-02-28T12:05:00;7.60;99.90
37340;DHT22;23223;51.006;7.610;2024-02-28T12:07:26;8.20;99.90
37340;DHT22;23223;51.006;7.610;2024-02-28T12:09:54;8.50;99.90
37340;DHT22;23223;51.006;7.610;2024-02-28T12:12:19;8.30;99.90
37340;DHT22;23223;51.006;7.610;2024-02-28T12:14:46;8.80;99.90
37340;DHT22;23223;51.006;7.610;2024-02-28T12:17:16;9.50;99.90
37340;DHT22;23223;51.006;7.610;2024-02-28T12:19:42;10.10;99.90
37340;DHT22;23223;51.006;7.610;2024-02-28T12:22:08;10.60;99.90
37340;DHT22;23223;51.006;7.610;2024-02-28T12:24:34;11.00;99.90
37340;DHT22;23223;51.006;7.610;2024-02-28T12:27:00;11.10;87.70
37340;DHT22;23223;51.006;7.610;2024-02-28T12:29:25;11.70;99.90
37340;DHT22;23223;51.006;7.610;2024-02-28T12:31:51;12.00;39.10
37340;DHT22;23223;51.006;7.610;2024-02-28T12:34:17;11.70;94.10
37340;DHT22;23223;51.006;7.610;2024-02-28T12:36:42;12.10;99.90
37340;DHT22;23223;51.006;7.610;2024-02-28T12:39:08;12.50;19.00
37340;DHT22;23223;51.006;7.610;2024-02-28T12:41:37;12.50;29.70
37340;DHT22;23223;51.006;7.610;2024-02-28T12:44:05;12.40;19.00
37340;DHT22;23223;51.006;7.610;2024-02-28T12:46:31;12.90;63.70
37340;DHT22;23223;51.006;7.610;2024-02-28T12:48:57;12.40;7.80
37340;DHT22;23223;51.006;7.610;2024-02-28T12:51:45;12.30;99.90
37340;DHT22;23223;51.006;7.610;2024-02-28T12:54:12;12.90;99.90
37340;DHT22;23223;51.006;7.610;2024-02-28T12:56:39;12.90;12.60
37340;DHT22;23223;51.006;7.610;2024-02-28T12:59:05;12.70;1.00
37340;DHT22;23223;51.006;7.610;2024-02-28T13:01:35;13.10;71.90
37340;DHT22;23223;51.006;7.610;2024-02-28T13:04:01;14.10;83.80
37340;DHT22;23223;51.006;7.610;2024-02-28T13:06:26;15.00;50.70
37340;DHT22;23223;51.006;7.610;2024-02-28T13:08:52;15.90;22.50
37340;DHT22;23223;51.006;7.610;2024-02-28T13:11:19;15.40;1.00
37340;DHT22;23223;51.006;7.610;2024-02-28T13:13:46;15.70;1.00
37340;DHT22;23223;51.006;7.610;2024-02-28T13:16:12;15.20;1.00
37340;DHT22;23223;51.006;7.610;2024-02-28T13:18:39;14.70;1.00
37340;DHT22;23223;51.006;7.610;2024-02-28T13:21:04;14.60;1.00
37340;DHT22;23223;51.006;7.610;2024-02-28T13:23:30;15.10;9.40
37340;DHT22;23223;51.006;7.610;2024-02-28T13:26:00;15.20;1.00
37340;DHT22;23223;51.006;7.610;2024-02-28T13:28:26;15.90;1.00
37340;DHT22;23223;51.006;7.610;2024-02-28T13:31:01;15.70;6.10
37340;DHT22;23223;51.006;7.610;2024-02-28T13:33:27;16.00;16.90
37340;DHT22;23223;51.006;7.610;2024-02-28T13:35:53;16.20;1.00
37340;DHT22;23223;51.006;7.610;2024-02-28T13:38:20;15.90;1.00
37340;DHT22;23223;51.006;7.610;2024-02-28T13:40:46;15.50;1.00
37340;DHT22;23223;51.006;7.610;2024-02-28T13:43:12;14.80;1.00
37340;DHT22;23223;51.006;7.610;2024-02-28T13:45:38;14.70;46.10
37340;DHT22;23223;51.006;7.610;2024-02-28T13:48:16;14.60;1.00
37340;DHT22;23223;51.006;7.610;2024-02-28T13:50:52;14.60;49.40
37340;DHT22;23223;51.006;7.610;2024-02-28T13:53:18;15.00;44.10
37340;DHT22;23223;51.006;7.610;2024-02-28T13:55:44;15.30;1.00
37340;DHT22;23223;51.006;7.610;2024-02-28T13:58:11;15.30;1.00
37340;DHT22;23223;51.006;7.610;2024-02-28T14:00:40;14.90;1.00
37340;DHT22;23223;51.006;7.610;2024-02-28T14:03:09;15.10;1.00
37340;DHT22;23223;51.006;7.610;2024-02-28T14:05:35;14.70;1.00
37340;DHT22;23223;51.006;7.610;2024-02-28T14:08:01;14.30;1.00
37340;DHT22;23223;51.006;7.610;2024-02-28T14:10:29;14.00;1.00
37340;DHT22;23223;51.006;7.610;2024-02-28T14:12:55;13.90;1.00
37340;DHT22;23223;51.006;7.610;2024-02-28T14:15:21;13.90;1.00
37340;DHT22;23223;51.006;7.610;2024-02-28T14:17:51;14.00;1.00
37340;DHT22;23223;51.006;7.610;2024-02-28T14:20:17;14.00;1.00
37340;DHT22;23223;51.006;7.610;2024-02-28T14:22:43;14.20;1.00
37340;DHT22;23223;51.006;7.610;2024-02-28T14:25:16;13.90;1.00
37340;DHT22;23223;51.006;7.610;2024-02-28T14:27:44;13.70;1.00
37340;DHT22;23223;51.006;7.610;2024-02-28T14:30:10;13.50;1.00
37340;DHT22;23223;51.006;7.610;2024-02-28T14:32:36;13.60;45.30
37340;DHT22;23223;51.006;7.610;2024-02-28T14:35:06;13.70;29.30
37340;DHT22;23223;51.006;7.610;2024-02-28T14:37:32;13.70;1.00
37340;DHT22;23223;51.006;7.610;2024-02-28T14:40:00;13.50;3.40
37340;DHT22;23223;51.006;7.610;2024-02-28T14:42:27;13.30;16.40
37340;DHT22;23223;51.006;7.610;2024-02-28T14:44:53;13.20;27.30
37340;DHT22;23223;51.006;7.610;2024-02-28T14:47:19;13.00;45.50
37340;DHT22;23223;51.006;7.610;2024-02-28T14:49:45;13.20;52.60
37340;DHT22;23223;51.006;7.610;2024-02-28T14:52:11;13.00;7.70
37340;DHT22;23223;51.006;7.610;2024-02-28T14:54:37;12.50;15.40
37340;DHT22;23223;51.006;7.610;2024-02-28T14:57:04;12.30;21.70
37340;DHT22;23223;51.006;7.610;2024-02-28T14:59:30;12.00;32.40
37340;DHT22;23223;51.006;7.610;2024-02-28T15:01:55;11.80;47.60
37340;DHT22;23223;51.006;7.610;2024-02-28T15:04:21;11.70;28.80
37340;DHT22;23223;51.006;7.610;2024-02-28T15:06:47;11.50;38.90
37340;DHT22;23223;51.006;7.610;2024-02-28T15:09:16;11.40;41.00
37340;DHT22;23223;51.006;7.610;2024-02-28T15:11:44;11.50;91.60
37340;DHT22;23223;51.006;7.610;2024-02-28T15:14:10;11.50;93.70
37340;DHT22;23223;51.006;7.610;2024-02-28T15:16:36;11.40;60.10
37340;DHT22;23223;51.006;7.610;2024-02-28T15:19:01;11.20;65.60
37340;DHT22;23223;51.006;7.610;2024-02-28T15:21:27;11.00;72.60
37340;DHT22;23223;51.006;7.610;2024-02-28T15:23:53;10.70;94.50
37340;DHT22;23223;51.006;7.610;2024-02-28T15:26:18;10.60;90.90
37340;DHT22;23223;51.006;7.610;2024-02-28T15:28:44;10.70;99.90
37340;DHT22;23223;51.006;7.610;2024-02-28T15:31:09;10.80;99.90
37340;DHT22;23223;51.006;7.610;2024-02-28T15:33:35;10.70;85.10
37340;DHT22;23223;51.006;7.610;2024-02-28T15:36:01;10.50;91.70
37340;DHT22;23223;51.006;7.610;2024-02-28T15:38:28;10.30;96.80
37340;DHT22;23223;51.006;7.610;2024-02-28T15:40:54;10.00;99.90